sensor_id;sensor_type;location;lat;lon;timestamp;temperature;humidity
10417;DHT22;5255;49.432;8.680;2022-07-23T00:01:54;24.00;1.00
10417;DHT22;5255;49.432;8.680;2022-07-23T00:04:21;24.00;1.00
10417;DHT22;5255;49.432;8.680;2022-07-23T00:06:49;24.00;1.00
10417;DHT22;5255;49.432;8.680;2022-07-23T00:09:16;23.90;1.00
10417;DHT22;5255;49.432;8.680;2022-07-23T00:11:43;23.90;1.00
10417;DHT22;5255;49.432;8.680;2022-07-23T00:14:10;24.00;1.00
10417;DHT22;5255;49.432;8.680;2022-07-23T00:16:37;23.90;1.00
10417;DHT22;5255;49.432;8.680;2022-07-23T00:19:05;23.90;1.00
10417;DHT22;5255;49.432;8.680;2022-07-23T00:21:32;23.90;1.00
10417;DHT22;5255;49.432;8.680;2022-07-23T00:23:59;23.80;1.00
10417;DHT22;5255;49.432;8.680;2022-07-23T00:26:27;23.80;1.00
10417;DHT22;5255;49.432;8.680;2022-07-23T00:28:54;23.70;1.00
10417;DHT22;5255;49.432;8.680;2022-07-23T00:31:21;23.50;1.00
10417;DHT22;5255;49.432;8.680;2022-07-23T00:33:48;23.40;1.00
10417;DHT22;5255;49.432;8.680;2022-07-23T00:36:16;23.30;31.90
10417;DHT22;5255;49.432;8.680;2022-07-23T00:38:43;23.20;36.60
10417;DHT22;5255;49.432;8.680;2022-07-23T00:41:10;23.10;48.40
10417;DHT22;5255;49.432;8.680;2022-07-23T00:43:37;23.10;32.40
10417;DHT22;5255;49.432;8.680;2022-07-23T00:46:04;23.00;17.40
10417;DHT22;5255;49.432;8.680;2022-07-23T00:48:32;23.00;1.00
10417;DHT22;5255;49.432;8.680;2022-07-23T00:50:59;23.00;1.00
10417;DHT22;5255;49.432;8.680;2022-07-23T00:53:27;22.90;1.00
10417;DHT22;5255;49.432;8.680;2022-07-23T00:55:56;22.90;1.00
10417;DHT22;5255;49.432;8.680;2022-07-23T00:58:24;22.80;1.00
10417;DHT22;5255;49.432;8.680;2022-07-23T01:00:51;22.80;1.00
10417;DHT22;5255;49.432;8.680;2022-07-23T01:03:18;22.70;1.00
10417;DHT22;5255;49.432;8.680;2022-07-23T01:05:45;22.70;1.00
10417;DHT22;5255;49.432;8.680;2022-07-23T01:08:13;22.60;1.00
10417;DHT22;5255;49.432;8.680;2022-07-23T01:10:42;22.70;1.00
10417;DHT22;5255;49.432;8.680;2022-07-23T01:13:10;22.60;1.00
10417;DHT22;5255;49.432;8.680;2022-07-23T01:15:38;22.50;1.00
10417;DHT22;5255;49.432;8.680;2022-07-23T01:18:06;22.40;1.00
10417;DHT22;5255;49.432;8.680;2022-07-23T01:20:33;22.30;1.00
10417;DHT22;5255;49.432;8.680;2022-07-23T01:23:02;22.20;1.00
10417;DHT22;5255;49.432;8.680;2022-07-23T01:25:29;22.20;1.00
10417;DHT22;5255;49.432;8.680;2022-07-23T01:27:56;22.20;1.00
10417;DHT22;5255;49.432;8.680;2022-07-23T01:30:24;22.10;1.00
10417;DHT22;5255;49.432;8.680;2022-07-23T01:32:51;22.10;1.00
10417;DHT22;5255;49.432;8.680;2022-07-23T01:35:18;22.20;1.00
10417;DHT22;5255;49.432;8.680;2022-07-23T01:37:45;22.00;1.00
10417;DHT22;5255;49.432;8.680;2022-07-23T01:40:13;22.00;27.00
10417;DHT22;5255;49.432;8.680;2022-07-23T01:42:41;21.80;65.40
10417;DHT22;5255;49.432;8.680;2022-07-23T01:45:09;21.80;89.40
10417;DHT22;5255;49.432;8.680;2022-07-23T01:47:36;21.90;41.90
10417;DHT22;5255;49.432;8.680;2022-07-23T01:50:03;21.90;1.00
10417;DHT22;5255;49.432;8.680;2022-07-23T01:52:31;21.90;5.70
10417;DHT22;5255;49.432;8.680;2022-07-23T01:54:58;21.90;1.00
10417;DHT22;5255;49.432;8.680;2022-07-23T01:57:26;21.90;1.00
10417;DHT22;5255;49.432;8.680;2022-07-23T01:59:53;21.90;1.00
10417;DHT22;5255;49.432;8.680;2022-07-23T02:02:20;21.90;1.00
10417;DHT22;5255;49.432;8.680;2022-07-23T02:04:47;21.90;1.00
10417;DHT22;5255;49.432;8.680;2022-07-23T02:07:14;21.80;1.00
10417;DHT22;5255;49.432;8.680;2022-07-23T02:09:42;21.80;1.00
10417;DHT22;5255;49.432;8.680;2022-07-23T02:12:09;21.80;40.80
10417;DHT22;5255;49.432;8.680;2022-07-23T02:14:38;21.80;18.50
10417;DHT22;5255;49.432;8.680;2022-07-23T02:17:05;21.80;22.40
10417;DHT22;5255;49.432;8.680;2022-07-23T02:19:32;21.60;98.70
10417;DHT22;5255;49.432;8.680;2022-07-23T02:21:59;21.50;99.90
10417;DHT22;5255;49.432;8.680;2022-07-23T02:24:26;21.50;99.90
10417;DHT22;5255;49.432;8.680;2022-07-23T02:26:53;21.50;99.90
10417;DHT22;5255;49.432;8.680;2022-07-23T02:29:20;21.50;99.90
10417;DHT22;5255;49.432;8.680;2022-07-23T02:31:48;21.50;99.90
10417;DHT22;5255;49.432;8.680;2022-07-23T02:34:16;21.40;99.90
10417;DHT22;5255;49.432;8.680;2022-07-23T02:36:43;21.30;99.90
10417;DHT22;5255;49.432;8.680;2022-07-23T02:39:10;21.20;99.90
10417;DHT22;5255;49.432;8.680;2022-07-23T02:41:37;21.20;99.90
10417;DHT22;5255;49.432;8.680;2022-07-23T02:44:04;21.10;99.90
10417;DHT22;5255;49.432;8.680;2022-07-23T02:46:31;21.10;99.90
10417;DHT22;5255;49.432;8.680;2022-07-23T02:49:00;21.20;99.90
10417;DHT22;5255;49.432;8.680;2022-07-23T02:51:27;21.20;99.90
10417;DHT22;5255;49.432;8.680;2022-07-23T02:53:54;21.20;99.90
10417;DHT22;5255;49.432;8.680;2022-07-23T02:56:21;21.30;99.90
10417;DHT22;5255;49.432;8.680;2022-07-23T02:58:48;21.30;99.90
10417;DHT22;5255;49.432;8.680;2022-07-23T03:01:16;21.30;99.90
10417;DHT22;5255;49.432;8.680;2022-07-23T03:03:43;21.30;99.90
10417;DHT22;5255;49.432;8.680;2022-07-23T03:06:11;21.30;99.90
10417;DHT22;5255;49.432;8.680;2022-07-23T03:08:39;21.30;99.90
10417;DHT22;5255;49.432;8.680;2022-07-23T03:11:06;21.30;99.90
10417;DHT22;5255;49.432;8.680;2022-07-23T03:13:36;21.20;99.90
10417;DHT22;5255;49.432;8.680;2022-07-23T03:16:04;21.20;99.90
10417;DHT22;5255;49.432;8.680;2022-07-23T03:18:32;21.20;99.90
10417;DHT22;5255;49.432;8.680;2022-07-23T03:20:59;21.00;99.90
10417;DHT22;5255;49.432;8.680;2022-07-23T03:23:28;21.00;99.90
10417;DHT22;5255;49.432;8.680;2022-07-23T03:25:55;20.90;99.90
10417;DHT22;5255;49.432;8.680;2022-07-23T03:28:22;20.90;99.90
10417;DHT22;5255;49.432;8.680;2022-07-23T03:30:49;20.90;99.90
10417;DHT22;5255;49.432;8.680;2022-07-23T03:33:17;20.90;99.90
10417;DHT22;5255;49.432;8.680;2022-07-23T03:35:45;20.90;1.00
10417;DHT22;5255;49.432;8.680;2022-07-23T03:38:13;20.90;1.00
10417;DHT22;5255;49.432;8.680;2022-07-23T03:40:41;20.90;99.90
10417;DHT22;5255;49.432;8.680;2022-07-23T03:43:08;20.90;99.90
10417;DHT22;5255;49.432;8.680;2022-07-23T03:45:35;20.90;1.00
10417;DHT22;5255;49.432;8.680;2022-07-23T03:48:03;20.90;99.90
10417;DHT22;5255;49.432;8.680;2022-07-23T03:50:30;20.90;99.90
10417;DHT22;5255;49.432;8.680;2022-07-23T03:52:57;21.00;99.90
10417;DHT22;5255;49.432;8.680;2022-07-23T03:55:25;20.90;99.90
10417;DHT22;5255;49.432;8.680;2022-07-23T03:57:53;20.90;99.90
10417;DHT22;5255;49.432;8.680;2022-07-23T04:00:20;20.90;99.90
10417;DHT22;5255;49.432;8.680;2022-07-23T04:02:48;20.90;99.90
10417;DHT22;5255;49.432;8.680;2022-07-23T04:05:15;20.90;99.90
10417;DHT22;5255;49.432;8.680;2022-07-23T04:07:42;20.90;99.90
10417;DHT22;5255;49.432;8.680;2022-07-23T04:10:09;21.00;99.90
10417;DHT22;5255;49.432;8.680;2022-07-23T04:12:36;21.00;99.90
10417;DHT22;5255;49.432;8.680;2022-07-23T04:15:07;21.00;99.90
10417;DHT22;5255;49.432;8.680;2022-07-23T04:17:35;20.90;99.90
10417;DHT22;5255;49.432;8.680;2022-07-23T04:20:02;20.90;99.90
10417;DHT22;5255;49.432;8.680;2022-07-23T04:22:30;20.90;99.90
10417;DHT22;5255;49.432;8.680;2022-07-23T04:24:57;20.90;1.00
10417;DHT22;5255;49.432;8.680;2022-07-23T04:27:24;20.80;1.00
10417;DHT22;5255;49.432;8.680;2022-07-23T04:29:51;20.70;1.00
10417;DHT22;5255;49.432;8.680;2022-07-23T04:32:19;20.60;26.60
10417;DHT22;5255;49.432;8.680;2022-07-23T04:34:47;20.50;1.00
10417;DHT22;5255;49.432;8.680;2022-07-23T04:37:14;20.40;1.00
10417;DHT22;5255;49.432;8.680;2022-07-23T04:39:41;20.30;99.90
10417;DHT22;5255;49.432;8.680;2022-07-23T04:42:08;20.30;99.90
10417;DHT22;5255;49.432;8.680;2022-07-23T04:44:35;20.30;62.90
10417;DHT22;5255;49.432;8.680;2022-07-23T04:47:02;20.30;99.90
10417;DHT22;5255;49.432;8.680;2022-07-23T04:49:31;20.30;1.00
10417;DHT22;5255;49.432;8.680;2022-07-23T04:51:58;20.30;99.90
10417;DHT22;5255;49.432;8.680;2022-07-23T04:54:25;20.30;1.00
10417;DHT22;5255;49.432;8.680;2022-07-23T04:56:52;20.40;1.00
10417;DHT22;5255;49.432;8.680;2022-07-23T04:59:19;20.40;99.90
10417;DHT22;5255;49.432;8.680;2022-07-23T05:01:46;20.50;99.90
10417;DHT22;5255;49.432;8.680;2022-07-23T05:04:14;20.40;58.00
10417;DHT22;5255;49.432;8.680;2022-07-23T05:06:42;20.40;99.90
10417;DHT22;5255;49.432;8.680;2022-07-23T05:09:09;20.40;1.00
10417;DHT22;5255;49.432;8.680;2022-07-23T05:11:36;20.40;1.00
10417;DHT22;5255;49.432;8.680;2022-07-23T05:14:03;20.40;1.00
10417;DHT22;5255;49.432;8.680;2022-07-23T05:16:30;20.40;1.00
10417;DHT22;5255;49.432;8.680;2022-07-23T05:18:58;20.30;1.00
10417;DHT22;5255;49.432;8.680;2022-07-23T05:21:25;20.30;1.00
10417;DHT22;5255;49.432;8.680;2022-07-23T05:23:53;20.20;99.90
10417;DHT22;5255;49.432;8.680;2022-07-23T05:26:21;20.10;1.00
10417;DHT22;5255;49.432;8.680;2022-07-23T05:28:48;20.10;1.00
10417;DHT22;5255;49.432;8.680;2022-07-23T05:31:15;20.00;99.90
10417;DHT22;5255;49.432;8.680;2022-07-23T05:33:42;20.10;1.00
10417;DHT22;5255;49.432;8.680;2022-07-23T05:36:10;20.00;9.10
10417;DHT22;5255;49.432;8.680;2022-07-23T05:38:37;19.90;1.00
10417;DHT22;5255;49.432;8.680;2022-07-23T05:41:05;19.80;1.00
10417;DHT22;5255;49.432;8.680;2022-07-23T05:43:32;19.60;99.90
10417;DHT22;5255;49.432;8.680;2022-07-23T05:46:00;19.60;99.90
10417;DHT22;5255;49.432;8.680;2022-07-23T05:48:27;19.60;99.90
10417;DHT22;5255;49.432;8.680;2022-07-23T05:50:54;19.70;99.90
10417;DHT22;5255;49.432;8.680;2022-07-23T05:53:21;19.80;1.00
10417;DHT22;5255;49.432;8.680;2022-07-23T05:55:49;19.80;1.00
10417;DHT22;5255;49.432;8.680;2022-07-23T05:58:17;19.90;1.00
10417;DHT22;5255;49.432;8.680;2022-07-23T06:00:44;19.90;1.00
10417;DHT22;5255;49.432;8.680;2022-07-23T06:03:11;19.90;1.00
10417;DHT22;5255;49.432;8.680;2022-07-23T06:05:38;19.90;35.10
10417;DHT22;5255;49.432;8.680;2022-07-23T06:08:06;20.10;92.10
10417;DHT22;5255;49.432;8.680;2022-07-23T06:10:33;20.20;1.00
10417;DHT22;5255;49.432;8.680;2022-07-23T06:13:00;20.20;99.90
10417;DHT22;5255;49.432;8.680;2022-07-23T06:15:29;20.30;1.00
10417;DHT22;5255;49.432;8.680;2022-07-23T06:17:57;20.30;1.00
10417;DHT22;5255;49.432;8.680;2022-07-23T06:20:24;20.00;1.00
10417;DHT22;5255;49.432;8.680;2022-07-23T06:22:52;20.00;99.90
10417;DHT22;5255;49.432;8.680;2022-07-23T06:25:19;20.00;1.00
10417;DHT22;5255;49.432;8.680;2022-07-23T06:27:47;19.90;1.00
10417;DHT22;5255;49.432;8.680;2022-07-23T06:30:15;20.00;1.00
10417;DHT22;5255;49.432;8.680;2022-07-23T06:32:44;20.00;1.00
10417;DHT22;5255;49.432;8.680;2022-07-23T06:35:11;20.00;1.00
10417;DHT22;5255;49.432;8.680;2022-07-23T06:37:38;20.00;1.00
10417;DHT22;5255;49.432;8.680;2022-07-23T06:40:06;20.10;99.90
10417;DHT22;5255;49.432;8.680;2022-07-23T06:42:33;20.10;99.90
10417;DHT22;5255;49.432;8.680;2022-07-23T06:45:02;20.00;99.90
10417;DHT22;5255;49.432;8.680;2022-07-23T06:47:29;20.10;1.00
10417;DHT22;5255;49.432;8.680;2022-07-23T06:49:58;20.20;1.00
10417;DHT22;5255;49.432;8.680;2022-07-23T06:52:26;20.10;1.00
10417;DHT22;5255;49.432;8.680;2022-07-23T06:54:53;20.10;99.90
10417;DHT22;5255;49.432;8.680;2022-07-23T06:57:20;20.20;99.90
10417;DHT22;5255;49.432;8.680;2022-07-23T06:59:47;20.40;99.90
10417;DHT22;5255;49.432;8.680;2022-07-23T07:02:15;20.40;1.00
10417;DHT22;5255;49.432;8.680;2022-07-23T07:04:42;20.50;99.90
10417;DHT22;5255;49.432;8.680;2022-07-23T07:07:11;20.70;1.00
10417;DHT22;5255;49.432;8.680;2022-07-23T07:09:38;20.60;99.90
10417;DHT22;5255;49.432;8.680;2022-07-23T07:12:06;20.60;1.00
10417;DHT22;5255;49.432;8.680;2022-07-23T07:14:33;20.60;1.00
10417;DHT22;5255;49.432;8.680;2022-07-23T07:17:01;20.50;99.90
10417;DHT22;5255;49.432;8.680;2022-07-23T07:19:28;20.50;1.00
10417;DHT22;5255;49.432;8.680;2022-07-23T07:21:55;20.50;1.00
10417;DHT22;5255;49.432;8.680;2022-07-23T07:24:24;20.50;99.90
10417;DHT22;5255;49.432;8.680;2022-07-23T07:26:51;20.60;1.00
10417;DHT22;5255;49.432;8.680;2022-07-23T07:29:19;20.70;99.90
10417;DHT22;5255;49.432;8.680;2022-07-23T07:31:46;20.80;99.90
10417;DHT22;5255;49.432;8.680;2022-07-23T07:34:14;21.10;99.90
10417;DHT22;5255;49.432;8.680;2022-07-23T07:36:41;21.40;1.00
10417;DHT22;5255;49.432;8.680;2022-07-23T07:39:09;21.60;1.00
10417;DHT22;5255;49.432;8.680;2022-07-23T07:41:38;21.70;1.00
10417;DHT22;5255;49.432;8.680;2022-07-23T07:44:05;21.30;1.00
10417;DHT22;5255;49.432;8.680;2022-07-23T07:46:32;21.40;1.00
10417;DHT22;5255;49.432;8.680;2022-07-23T07:48:59;21.50;99.90
10417;DHT22;5255;49.432;8.680;2022-07-23T07:51:27;21.80;99.90
10417;DHT22;5255;49.432;8.680;2022-07-23T07:53:54;21.80;94.70
10417;DHT22;5255;49.432;8.680;2022-07-23T07:56:21;21.80;1.00
10417;DHT22;5255;49.432;8.680;2022-07-23T07:58:50;21.80;99.90
10417;DHT22;5255;49.432;8.680;2022-07-23T08:01:17;22.20;1.00
10417;DHT22;5255;49.432;8.680;2022-07-23T08:03:45;22.30;99.90
10417;DHT22;5255;49.432;8.680;2022-07-23T08:06:13;22.60;99.90
10417;DHT22;5255;49.432;8.680;2022-07-23T08:08:40;22.70;99.90
10417;DHT22;5255;49.432;8.680;2022-07-23T08:11:07;22.80;99.90
10417;DHT22;5255;49.432;8.680;2022-07-23T08:13:35;22.90;4.20
10417;DHT22;5255;49.432;8.680;2022-07-23T08:16:04;23.00;1.00
10417;DHT22;5255;49.432;8.680;2022-07-23T08:18:31;22.80;1.00
10417;DHT22;5255;49.432;8.680;2022-07-23T08:20:58;22.60;1.00
10417;DHT22;5255;49.432;8.680;2022-07-23T08:23:26;22.50;99.40
10417;DHT22;5255;49.432;8.680;2022-07-23T08:25:53;22.40;1.00
10417;DHT22;5255;49.432;8.680;2022-07-23T08:28:22;22.40;99.90
10417;DHT22;5255;49.432;8.680;2022-07-23T08:30:49;22.50;99.90
10417;DHT22;5255;49.432;8.680;2022-07-23T08:33:18;22.60;99.90
10417;DHT22;5255;49.432;8.680;2022-07-23T08:35:50;22.60;1.00
10417;DHT22;5255;49.432;8.680;2022-07-23T08:38:20;22.50;40.40
10417;DHT22;5255;49.432;8.680;2022-07-23T08:40:49;22.70;55.60
10417;DHT22;5255;49.432;8.680;2022-07-23T08:43:19;23.10;1.00
10417;DHT22;5255;49.432;8.680;2022-07-23T08:45:49;23.20;1.00
10417;DHT22;5255;49.432;8.680;2022-07-23T08:48:21;23.00;1.00
10417;DHT22;5255;49.432;8.680;2022-07-23T08:50:51;22.90;1.00
10417;DHT22;5255;49.432;8.680;2022-07-23T08:53:20;22.90;1.00
10417;DHT22;5255;49.432;8.680;2022-07-23T08:55:50;23.00;1.00
10417;DHT22;5255;49.432;8.680;2022-07-23T08:58:18;22.90;1.00
10417;DHT22;5255;49.432;8.680;2022-07-23T09:00:46;22.80;1.00
10417;DHT22;5255;49.432;8.680;2022-07-23T09:03:16;22.80;1.00
10417;DHT22;5255;49.432;8.680;2022-07-23T09:05:46;23.10;1.00
10417;DHT22;5255;49.432;8.680;2022-07-23T09:08:14;23.30;1.00
10417;DHT22;5255;49.432;8.680;2022-07-23T09:10:50;23.40;1.00
10417;DHT22;5255;49.432;8.680;2022-07-23T09:13:26;23.10;1.00
10417;DHT22;5255;49.432;8.680;2022-07-23T09:15:56;23.20;1.00
10417;DHT22;5255;49.432;8.680;2022-07-23T09:18:31;23.30;99.90
10417;DHT22;5255;49.432;8.680;2022-07-23T09:21:14;23.30;99.90
10417;DHT22;5255;49.432;8.680;2022-07-23T09:23:53;23.30;99.90
10417;DHT22;5255;49.432;8.680;2022-07-23T09:26:28;23.40;99.90
10417;DHT22;5255;49.432;8.680;2022-07-23T09:29:04;23.50;99.90
10417;DHT22;5255;49.432;8.680;2022-07-23T09:31:34;23.90;99.90
10417;DHT22;5255;49.432;8.680;2022-07-23T09:34:14;24.00;99.90
10417;DHT22;5255;49.432;8.680;2022-07-23T09:36:41;23.90;99.90
10417;DHT22;5255;49.432;8.680;2022-07-23T09:39:11;23.90;99.90
10417;DHT22;5255;49.432;8.680;2022-07-23T09:41:42;23.90;99.90
10417;DHT22;5255;49.432;8.680;2022-07-23T09:44:15;23.80;99.90
10417;DHT22;5255;49.432;8.680;2022-07-23T09:46:44;24.10;99.90
10417;DHT22;5255;49.432;8.680;2022-07-23T09:49:17;24.10;99.90
10417;DHT22;5255;49.432;8.680;2022-07-23T09:51:50;24.00;99.90
10417;DHT22;5255;49.432;8.680;2022-07-23T09:54:31;24.00;99.90
10417;DHT22;5255;49.432;8.680;2022-07-23T09:57:02;23.90;99.90
10417;DHT22;5255;49.432;8.680;2022-07-23T09:59:32;23.90;99.90
10417;DHT22;5255;49.432;8.680;2022-07-23T10:02:00;24.10;99.90
10417;DHT22;5255;49.432;8.680;2022-07-23T10:04:29;24.30;99.90
10417;DHT22;5255;49.432;8.680;2022-07-23T10:06:57;24.30;99.90
10417;DHT22;5255;49.432;8.680;2022-07-23T10:09:32;24.40;99.90
10417;DHT22;5255;49.432;8.680;2022-07-23T10:12:01;24.50;99.90
10417;DHT22;5255;49.432;8.680;2022-07-23T10:14:34;24.80;33.40
10417;DHT22;5255;49.432;8.680;2022-07-23T10:17:01;24.80;42.50
10417;DHT22;5255;49.432;8.680;2022-07-23T10:19:29;24.90;22.60
10417;DHT22;5255;49.432;8.680;2022-07-23T10:21:59;25.10;11.80
10417;DHT22;5255;49.432;8.680;2022-07-23T10:25:06;25.10;32.30
10417;DHT22;5255;49.432;8.680;2022-07-23T10:27:50;25.10;7.10
10417;DHT22;5255;49.432;8.680;2022-07-23T10:30:22;25.00;14.10
10417;DHT22;5255;49.432;8.680;2022-07-23T10:33:01;25.30;1.00
10417;DHT22;5255;49.432;8.680;2022-07-23T10:35:36;25.50;1.00
10417;DHT22;5255;49.432;8.680;2022-07-23T10:38:11;25.60;1.00
10417;DHT22;5255;49.432;8.680;2022-07-23T10:40:53;25.50;1.00
10417;DHT22;5255;49.432;8.680;2022-07-23T10:43:21;25.30;1.00
10417;DHT22;5255;49.432;8.680;2022-07-23T10:45:48;25.70;1.00
10417;DHT22;5255;49.432;8.680;2022-07-23T10:48:19;25.70;1.00
10417;DHT22;5255;49.432;8.680;2022-07-23T10:51:09;25.80;1.00
10417;DHT22;5255;49.432;8.680;2022-07-23T10:53:58;26.00;1.00
10417;DHT22;5255;49.432;8.680;2022-07-23T10:57:04;25.70;1.00
10417;DHT22;5255;49.432;8.680;2022-07-23T11:02:38;25.70;1.00
10417;DHT22;5255;49.432;8.680;2022-07-23T11:05:06;25.90;1.00
10417;DHT22;5255;49.432;8.680;2022-07-23T11:07:34;26.20;1.00
10417;DHT22;5255;49.432;8.680;2022-07-23T11:10:02;26.40;1.00
10417;DHT22;5255;49.432;8.680;2022-07-23T11:12:35;26.30;1.00
10417;DHT22;5255;49.432;8.680;2022-07-23T11:15:08;26.30;1.00
10417;DHT22;5255;49.432;8.680;2022-07-23T11:17:37;26.40;1.00
10417;DHT22;5255;49.432;8.680;2022-07-23T11:20:16;26.60;1.00
10417;DHT22;5255;49.432;8.680;2022-07-23T11:22:49;26.70;1.00
10417;DHT22;5255;49.432;8.680;2022-07-23T11:25:36;26.60;1.00
10417;DHT22;5255;49.432;8.680;2022-07-23T11:28:13;26.80;1.00
10417;DHT22;5255;49.432;8.680;2022-07-23T11:30:43;27.00;1.00
10417;DHT22;5255;49.432;8.680;2022-07-23T11:33:19;27.30;1.00
10417;DHT22;5255;49.432;8.680;2022-07-23T11:35:48;27.50;1.00
10417;DHT22;5255;49.432;8.680;2022-07-23T11:38:17;27.80;1.00
10417;DHT22;5255;49.432;8.680;2022-07-23T11:40:48;27.70;1.00
10417;DHT22;5255;49.432;8.680;2022-07-23T11:43:17;27.90;1.00
10417;DHT22;5255;49.432;8.680;2022-07-23T11:45:46;28.20;1.00
10417;DHT22;5255;49.432;8.680;2022-07-23T11:48:19;28.30;1.00
10417;DHT22;5255;49.432;8.680;2022-07-23T11:50:46;28.00;1.00
10417;DHT22;5255;49.432;8.680;2022-07-23T11:53:21;27.60;1.00
10417;DHT22;5255;49.432;8.680;2022-07-23T11:55:48;27.60;1.00
10417;DHT22;5255;49.432;8.680;2022-07-23T11:58:17;27.50;1.00
10417;DHT22;5255;49.432;8.680;2022-07-23T12:00:44;27.50;1.00
10417;DHT22;5255;49.432;8.680;2022-07-23T12:03:11;27.50;1.00
10417;DHT22;5255;49.432;8.680;2022-07-23T12:05:39;27.70;1.00
10417;DHT22;5255;49.432;8.680;2022-07-23T12:08:08;28.10;1.00
10417;DHT22;5255;49.432;8.680;2022-07-23T12:10:37;28.90;1.00
10417;DHT22;5255;49.432;8.680;2022-07-23T12:13:06;28.80;1.00
10417;DHT22;5255;49.432;8.680;2022-07-23T12:15:39;29.00;1.00
10417;DHT22;5255;49.432;8.680;2022-07-23T12:18:07;28.60;1.00
10417;DHT22;5255;49.432;8.680;2022-07-23T12:20:37;28.60;1.00
10417;DHT22;5255;49.432;8.680;2022-07-23T12:23:06;28.20;1.00
10417;DHT22;5255;49.432;8.680;2022-07-23T12:25:35;28.70;1.00
10417;DHT22;5255;49.432;8.680;2022-07-23T12:28:05;28.40;1.00
10417;DHT22;5255;49.432;8.680;2022-07-23T12:30:37;28.70;1.00
10417;DHT22;5255;49.432;8.680;2022-07-23T12:33:07;29.10;1.00
10417;DHT22;5255;49.432;8.680;2022-07-23T12:35:37;28.70;1.00
10417;DHT22;5255;49.432;8.680;2022-07-23T12:38:07;29.00;1.00
10417;DHT22;5255;49.432;8.680;2022-07-23T12:40:36;28.80;1.00
10417;DHT22;5255;49.432;8.680;2022-07-23T12:43:09;28.40;1.00
10417;DHT22;5255;49.432;8.680;2022-07-23T12:45:47;28.10;1.00
10417;DHT22;5255;49.432;8.680;2022-07-23T12:48:19;28.00;1.00
10417;DHT22;5255;49.432;8.680;2022-07-23T12:50:55;28.20;1.00
10417;DHT22;5255;49.432;8.680;2022-07-23T12:53:25;27.70;1.00
10417;DHT22;5255;49.432;8.680;2022-07-23T12:55:59;27.50;1.00
10417;DHT22;5255;49.432;8.680;2022-07-23T12:58:26;27.30;1.00
10417;DHT22;5255;49.432;8.680;2022-07-23T13:01:02;27.10;1.00
10417;DHT22;5255;49.432;8.680;2022-07-23T13:03:34;26.80;1.00
10417;DHT22;5255;49.432;8.680;2022-07-23T13:06:07;24.80;99.90
10417;DHT22;5255;49.432;8.680;2022-07-23T13:08:37;24.40;1.00
10417;DHT22;5255;49.432;8.680;2022-07-23T13:11:05;24.40;99.90
10417;DHT22;5255;49.432;8.680;2022-07-23T13:13:34;24.60;1.00
10417;DHT22;5255;49.432;8.680;2022-07-23T13:16:02;24.90;99.90
10417;DHT22;5255;49.432;8.680;2022-07-23T13:18:32;25.00;1.00
10417;DHT22;5255;49.432;8.680;2022-07-23T13:21:00;24.80;1.00
10417;DHT22;5255;49.432;8.680;2022-07-23T13:23:28;25.10;1.00
10417;DHT22;5255;49.432;8.680;2022-07-23T13:25:58;25.30;1.00
10417;DHT22;5255;49.432;8.680;2022-07-23T13:28:26;25.40;99.90
10417;DHT22;5255;49.432;8.680;2022-07-23T13:30:54;25.70;99.90
10417;DHT22;5255;49.432;8.680;2022-07-23T13:33:24;25.70;99.90
10417;DHT22;5255;49.432;8.680;2022-07-23T13:35:53;25.80;1.00
10417;DHT22;5255;49.432;8.680;2022-07-23T13:38:21;25.80;99.90
10417;DHT22;5255;49.432;8.680;2022-07-23T13:40:49;25.70;1.00
10417;DHT22;5255;49.432;8.680;2022-07-23T13:43:19;25.90;1.00
10417;DHT22;5255;49.432;8.680;2022-07-23T13:45:47;26.00;1.00
10417;DHT22;5255;49.432;8.680;2022-07-23T13:48:14;25.70;99.90
10417;DHT22;5255;49.432;8.680;2022-07-23T13:50:42;26.00;1.00
10417;DHT22;5255;49.432;8.680;2022-07-23T13:53:15;26.30;99.90
10417;DHT22;5255;49.432;8.680;2022-07-23T13:55:43;26.60;99.90
10417;DHT22;5255;49.432;8.680;2022-07-23T13:58:11;26.40;99.90
10417;DHT22;5255;49.432;8.680;2022-07-23T14:00:40;26.40;99.90
10417;DHT22;5255;49.432;8.680;2022-07-23T14:03:08;26.70;99.90
10417;DHT22;5255;49.432;8.680;2022-07-23T14:05:36;26.90;99.90
10417;DHT22;5255;49.432;8.680;2022-07-23T14:08:03;26.80;99.90
10417;DHT22;5255;49.432;8.680;2022-07-23T14:10:32;26.90;99.90
10417;DHT22;5255;49.432;8.680;2022-07-23T14:13:00;27.00;99.90
10417;DHT22;5255;49.432;8.680;2022-07-23T14:15:29;27.20;99.90
10417;DHT22;5255;49.432;8.680;2022-07-23T14:17:57;26.90;99.90
10417;DHT22;5255;49.432;8.680;2022-07-23T14:20:24;26.80;99.90
10417;DHT22;5255;49.432;8.680;2022-07-23T14:22:52;26.90;99.90
10417;DHT22;5255;49.432;8.680;2022-07-23T14:25:21;27.50;99.90
10417;DHT22;5255;49.432;8.680;2022-07-23T14:27:49;27.80;1.00
10417;DHT22;5255;49.432;8.680;2022-07-23T14:30:17;28.30;1.00
10417;DHT22;5255;49.432;8.680;2022-07-23T14:32:46;28.50;1.00
10417;DHT22;5255;49.432;8.680;2022-07-23T14:35:14;28.30;1.00
10417;DHT22;5255;49.432;8.680;2022-07-23T14:37:41;28.20;1.00
10417;DHT22;5255;49.432;8.680;2022-07-23T14:40:08;29.00;1.00
10417;DHT22;5255;49.432;8.680;2022-07-23T14:42:36;29.30;1.00
10417;DHT22;5255;49.432;8.680;2022-07-23T14:45:05;28.80;1.00
10417;DHT22;5255;49.432;8.680;2022-07-23T14:47:32;29.40;1.00
10417;DHT22;5255;49.432;8.680;2022-07-23T14:49:59;29.80;1.00
10417;DHT22;5255;49.432;8.680;2022-07-23T14:52:27;29.70;1.00
10417;DHT22;5255;49.432;8.680;2022-07-23T14:54:55;29.80;1.00
10417;DHT22;5255;49.432;8.680;2022-07-23T14:57:28;29.80;1.00
10417;DHT22;5255;49.432;8.680;2022-07-23T14:59:55;30.20;1.00
10417;DHT22;5255;49.432;8.680;2022-07-23T15:02:24;29.60;1.00
10417;DHT22;5255;49.432;8.680;2022-07-23T15:04:52;29.50;1.00
10417;DHT22;5255;49.432;8.680;2022-07-23T15:07:19;29.30;1.00
10417;DHT22;5255;49.432;8.680;2022-07-23T15:09:46;29.20;1.00
10417;DHT22;5255;49.432;8.680;2022-07-23T15:12:13;29.50;1.00
10417;DHT22;5255;49.432;8.680;2022-07-23T15:14:40;30.00;1.00
10417;DHT22;5255;49.432;8.680;2022-07-23T15:17:08;29.90;1.00
10417;DHT22;5255;49.432;8.680;2022-07-23T15:19:36;29.90;1.00
10417;DHT22;5255;49.432;8.680;2022-07-23T15:22:04;30.30;1.00
10417;DHT22;5255;49.432;8.680;2022-07-23T15:24:31;30.00;1.00
10417;DHT22;5255;49.432;8.680;2022-07-23T15:26:59;30.10;1.00
10417;DHT22;5255;49.432;8.680;2022-07-23T15:29:27;30.60;1.00
10417;DHT22;5255;49.432;8.680;2022-07-23T15:31:54;30.90;1.00
10417;DHT22;5255;49.432;8.680;2022-07-23T15:34:22;30.80;1.00
10417;DHT22;5255;49.432;8.680;2022-07-23T15:36:50;30.80;1.00
10417;DHT22;5255;49.432;8.680;2022-07-23T15:39:17;30.90;1.00
10417;DHT22;5255;49.432;8.680;2022-07-23T15:41:45;31.10;1.00
10417;DHT22;5255;49.432;8.680;2022-07-23T15:44:12;31.30;1.00
10417;DHT22;5255;49.432;8.680;2022-07-23T15:46:39;31.40;1.00
10417;DHT22;5255;49.432;8.680;2022-07-23T15:49:09;31.10;1.00
10417;DHT22;5255;49.432;8.680;2022-07-23T15:51:36;31.20;1.00
10417;DHT22;5255;49.432;8.680;2022-07-23T15:54:05;31.00;1.00
10417;DHT22;5255;49.432;8.680;2022-07-23T15:56:32;30.50;1.00
10417;DHT22;5255;49.432;8.680;2022-07-23T15:58:59;30.20;1.00
10417;DHT22;5255;49.432;8.680;2022-07-23T16:01:26;29.60;1.00
10417;DHT22;5255;49.432;8.680;2022-07-23T16:03:55;29.30;1.00
10417;DHT22;5255;49.432;8.680;2022-07-23T16:06:24;29.60;1.00
10417;DHT22;5255;49.432;8.680;2022-07-23T16:08:51;29.80;1.00